Portada
METAR-TAF:

METAR-TAF

Aeroports :

Còrdova, Espanya

latitud: 37-51N, longitud: 004-51W, altitud: 90 m

Observació

L'informe es va fer fa 30 minuts, a les 07:30 UTC
Vent 4 kt del Sud-Oest, variant entre Sud i Nord-Oest
Temperatura 22°C
Humitat 73%
Pressió 1017 hPa
Visibilitat: 9000 m
Cel cobert a una alçada de 1600 ft

METAR: LEBA 250730Z 23004KT 170V320 9000 OVC016 22/17 Q1017

Hora: 10:00 (08:00 UTC)

Pronòstic

L'informe es va fer fa 1 hora i 55 minuts, a les 06:05 UTC
Pronòstic vàlid del 25 a les 06 UTC al 25 a les 15 UTC
Vent 5 kt del Sud-Oest
Visibilitat 10 km o més
Núvols disperses a una alçada de 2000 ft

TAF: LEBA 250605Z 2506/2515 23005KT 9999 SCT020

Observacions i pronòstics meteorològics de més de 4000 aeroports (METAR i TAF).

Les estacions disponibles són els punts grocs i vermells al mapa.

Posi el ratolí al punt desitjat per veure el nom de l'estació.

Feu clic per veure les observacions i els pronòstics meteorològics.

Per canviar el mapa: feu clic els botons verds amb una creu de color negre per apropar; al botó verd amb un guió per allunyar la imatge; o en les fletxes verdes per a mapes adjacents.


METAR-TAF: